WXM80 ListenWXM80 Stop

You find our weather info also at:

UK Metoffice

WeatherCloud

Weather Underground

Northeastern Weather Network

AWEKAS

Citizen Weather Observer Program (CWOP)

HAMweather, WeatherForYou, PWS Weather


Weather Underground History page Text

Daily Summary for May 6, 2017 Units:  Metric    English   Both
« Previous Day
Next Day »
Daily Weekly Monthly Yearly Custom
  High: Low: Average:
Temperature: -17.8 °C 13.1 °C 16.2 °C
Dew Point: -17.8 °C 10.6 °C 13.7 °C
Humidity: Humidity % 63 % 85 %
Wind Speed: 0 km/h 0.3 km/h 6.9 km/h
Wind Gust: 0 km/h - -
Wind:- - South
Pressure: 0 hPa 994.1 hPa -
Precipitation: 0.76 mm    
Historical Graphs
 
 
Tabular Data for May 6, 2017
Time Temperature Dew Point Pressure Wind Wind Speed Wind Gust Humidity Rainfall Rate (Hourly)
-17.8 °C -17.8 °C 0 hPa Calm     Humidity % 0 mm
00:00 16.1 °C 15.7 °C 998.9 hPa SSE 7.9 km/h 16.7 km/h 98 % 0 mm
00:05 16.1 °C 15.7 °C 998.9 hPa ESE 8.9 km/h 16.1 km/h 98 % 0 mm
00:10 16.1 °C 15.8 °C 998.9 hPa South 1.3 km/h 14.8 km/h 98 % 0 mm
00:15 16.2 °C 15.8 °C 998.9 hPa SE 13.4 km/h 22.2 km/h 98 % 0 mm
00:20 16.2 °C 15.9 °C 998.9 hPa SSE 9.8 km/h 18.5 km/h 98 % 0 mm
00:25 16.3 °C 16 °C 998.9 hPa SSW 5.5 km/h 11.1 km/h 98 % 0 mm
00:30 16.3 °C 16 °C 998.9 hPa SSE 8.7 km/h 16.1 km/h 98 % 0 mm
00:32 16.3 °C 16 °C 998.9 hPa SSE 9.5 km/h 20.9 km/h 98 % 0 mm
00:37 16.4 °C 16.1 °C 998.9 hPa SSE 11.1 km/h 20.4 km/h 98 % 0 mm
00:42 16.4 °C 16.1 °C 998.5 hPa South 11.7 km/h 20.4 km/h 98 % 0 mm
00:47 16.4 °C 16.1 °C 998.9 hPa SSE 7.2 km/h 16.1 km/h 98 % 0 mm
00:52 16.4 °C 16.1 °C 998.9 hPa SSE 8.5 km/h 20.9 km/h 98 % 0 mm
00:57 16.4 °C 16.1 °C 998.5 hPa South 4.8 km/h 18.5 km/h 98 % 0 mm
01:02 16.4 °C 15.9 °C 998.5 hPa SSE 6 km/h 14.8 km/h 97 % 0 mm
01:07 16.4 °C 15.9 °C 998.5 hPa South 10 km/h 25.9 km/h 97 % 0 mm
01:12 16.4 °C 15.9 °C 998.2 hPa South 7.6 km/h 25.9 km/h 97 % 0 mm
01:17 16.4 °C 15.9 °C 998.2 hPa SE 15.9 km/h 29.6 km/h 97 % 0 mm
01:22 16.4 °C 15.9 °C 998.2 hPa SSE 11.4 km/h 16.1 km/h 97 % 0 mm
01:27 16.5 °C 16 °C 998.2 hPa SSE 10.5 km/h 19.3 km/h 97 % 0 mm
01:32 16.5 °C 16 °C 998.2 hPa SSW 9 km/h 27.8 km/h 97 % 0 mm
01:37 16.6 °C 16.1 °C 998.2 hPa SSE 15.1 km/h 25.7 km/h 97 % 0 mm
01:43 16.6 °C 16.1 °C 997.9 hPa SSE 7.7 km/h 24.1 km/h 97 % 0 mm
01:48 16.6 °C 16.1 °C 997.5 hPa SE 12.4 km/h 27.8 km/h 97 % 0 mm
01:53 16.6 °C 16.1 °C 997.5 hPa South 15 km/h 27.8 km/h 97 % 0 mm
01:58 16.6 °C 15.9 °C 997.9 hPa South 6.3 km/h 16.7 km/h 96 % 0 mm
02:03 16.5 °C 15.8 °C 997.9 hPa South 8.9 km/h 14.8 km/h 96 % 0 mm
02:08 16.4 °C 15.8 °C 997.5 hPa South 5.6 km/h 6.4 km/h 96 % 0 mm
02:13 16.4 °C 15.8 °C 997.5 hPa South 11.9 km/h 35.2 km/h 96 % 0 mm
02:18 16.4 °C 15.9 °C 997.2 hPa SSE 13.2 km/h 16.7 km/h 97 % 0.25 mm
02:23 16.5 °C 16 °C 997.2 hPa South 18.5 km/h 37 km/h 97 % 0.25 mm
02:28 16.6 °C 16.1 °C 996.8 hPa South 7.4 km/h 20.4 km/h 97 % 0.25 mm
02:33 16.6 °C 16.1 °C 996.8 hPa South 13.2 km/h 27.8 km/h 97 % 0.25 mm
02:38 16.6 °C 16.1 °C 996.5 hPa South 11.7 km/h 18.5 km/h 97 % 0.25 mm
02:43 16.6 °C 16.1 °C 996.8 hPa SSE 12.6 km/h 25.9 km/h 97 % 0.25 mm
02:48 16.6 °C 16.1 °C 996.8 hPa SE 9.3 km/h 18.5 km/h 97 % 0.25 mm
02:53 16.7 °C 16.2 °C 996.5 hPa South 11.9 km/h 37 km/h 97 % 0.51 mm
02:58 16.7 °C 16.2 °C 996.8 hPa SE 12.7 km/h 22.2 km/h 97 % 0.51 mm
03:03 16.7 °C 16.2 °C 996.2 hPa SSE 8 km/h 20.9 km/h 97 % 0.51 mm
03:08 16.7 °C 16.2 °C 996.5 hPa SE 6.1 km/h 18.5 km/h 97 % 0.51 mm
03:13 16.7 °C 16.2 °C 996.5 hPa SSE 9.2 km/h 16.1 km/h 97 % 0.51 mm
03:18 16.8 °C 16.3 °C 996.2 hPa South 8.9 km/h 37 km/h 97 % 0.25 mm
03:24 16.8 °C 16.3 °C 996.2 hPa SSE 5.6 km/h 14.8 km/h 97 % 0.25 mm
03:29 16.9 °C 16.4 °C 995.8 hPa SSE 9.2 km/h 20.4 km/h 97 % 0.25 mm
03:34 16.9 °C 16.4 °C 995.8 hPa South 14.3 km/h 25.9 km/h 97 % 0.25 mm
03:40 16.9 °C 16.4 °C 995.8 hPa South 12.6 km/h 24.1 km/h 97 % 0.25 mm
03:45 17 °C 16.5 °C 995.8 hPa SW 10.8 km/h 18.5 km/h 97 % 0.25 mm
03:50 17 °C 16.5 °C 995.8 hPa East 10.3 km/h 16.7 km/h 97 % 0.25 mm
03:55 17.1 °C 16.6 °C 995.5 hPa ESE 15 km/h 33.8 km/h 97 % 0 mm
04:00 17.2 °C 16.8 °C 995.5 hPa East 12.4 km/h 24.1 km/h 98 % 0 mm
04:05 17.3 °C 17 °C 995.5 hPa SSE 18 km/h 27.8 km/h 98 % 0 mm
04:10 17.5 °C 17.2 °C 995.1 hPa South 11.7 km/h 25.9 km/h 98 % 0 mm
04:15 17.5 °C 17.2 °C 995.1 hPa SSW 8.7 km/h 16.7 km/h 98 % 0 mm
04:20 17.4 °C 17.1 °C 995.5 hPa South 12.7 km/h 17.7 km/h 98 % 0 mm
04:25 17.3 °C 16.8 °C 995.1 hPa SSE 13.4 km/h 18.5 km/h 97 % 0.25 mm
04:30 17.2 °C 16.7 °C 995.1 hPa SSW 8.5 km/h 18.5 km/h 97 % 0.25 mm
04:35 17 °C 16.5 °C 995.5 hPa SSE 10.8 km/h 16.1 km/h 97 % 0.25 mm
04:40 16.8 °C 16.3 °C 995.1 hPa East 7.1 km/h 16.7 km/h 97 % 0.25 mm
04:45 16.7 °C 16.2 °C 995.1 hPa SE 6.6 km/h 24.1 km/h 97 % 0.25 mm
04:50 16.6 °C 16.1 °C 995.1 hPa SSW 5 km/h 14.8 km/h 97 % 0.25 mm
04:55 16.5 °C 16 °C 995.5 hPa South 5 km/h 33.3 km/h 97 % 0.25 mm
05:01 16.4 °C 15.9 °C 995.1 hPa South 6 km/h 16.7 km/h 97 % 0.25 mm
05:06 16.3 °C 15.8 °C 995.1 hPa South 8.9 km/h 18.5 km/h 97 % 0.25 mm
05:11 16.3 °C 15.8 °C 994.8 hPa South 12.4 km/h 24.1 km/h 97 % 0.25 mm
05:16 16.2 °C 15.7 °C 995.1 hPa SSE 9 km/h 22.2 km/h 97 % 0.25 mm
05:21 16.2 °C 15.7 °C 994.8 hPa South 8.9 km/h 25.9 km/h 97 % 0.25 mm
05:26 16.2 °C 15.7 °C 994.5 hPa SSE 14.5 km/h 32.2 km/h 97 % 0 mm
05:31 16.2 °C 15.7 °C 994.8 hPa South 4.8 km/h 20.9 km/h 97 % 0 mm
05:36 16.2 °C 15.7 °C 994.5 hPa SSE 8 km/h 24.1 km/h 97 % 0 mm
05:41 16.2 °C 15.7 °C 994.5 hPa South 4.8 km/h 19.3 km/h 97 % 0 mm
05:46 16.2 °C 15.7 °C 994.8 hPa South 9.7 km/h 22.5 km/h 97 % 0 mm
05:51 16.2 °C 15.8 °C 994.8 hPa SSE 4.8 km/h 19.3 km/h 97 % 0 mm
05:56 16.3 °C 15.8 °C 994.8 hPa SSE 8 km/h 24.1 km/h 97 % 0 mm
06:01 16.3 °C 15.8 °C 994.8 hPa ESE 7.9 km/h 22.2 km/h 97 % 0 mm
06:06 16.2 °C 15.7 °C 995.1 hPa South 11.1 km/h 20.4 km/h 97 % 0 mm
06:11 16.2 °C 15.7 °C 995.5 hPa SSW 7.4 km/h 16.7 km/h 97 % 0 mm
06:16 16.1 °C 15.6 °C 995.5 hPa South 6.9 km/h 11.1 km/h 97 % 0 mm
06:21 15.9 °C 15.4 °C 995.5 hPa SSW 6.4 km/h 16.7 km/h 97 % 0 mm
06:26 15.9 °C 15.4 °C 995.5 hPa SSW 8.4 km/h 20.4 km/h 97 % 0 mm
06:31 15.8 °C 15.3 °C 995.5 hPa SSW 10.1 km/h 16.7 km/h 97 % 0 mm
06:36 15.8 °C 15.3 °C 995.5 hPa SW 6.8 km/h 14.5 km/h 97 % 0 mm
06:41 15.8 °C 15.3 °C 995.5 hPa SSE 8.2 km/h 16.7 km/h 97 % 0 mm
06:46 15.7 °C 15.2 °C 995.8 hPa South 3.2 km/h 18.5 km/h 97 % 0 mm
06:51 15.7 °C 15.2 °C 995.8 hPa South 4.2 km/h 6.4 km/h 97 % 0 mm
06:56 15.7 °C 15.2 °C 995.5 hPa SSW 5.1 km/h 13 km/h 97 % 0 mm
07:01 15.7 °C 15.2 °C 995.5 hPa SSE 4.5 km/h 17.7 km/h 97 % 0 mm
07:06 15.7 °C 15.2 °C 995.5 hPa SE 7.6 km/h 16.7 km/h 97 % 0 mm
07:11 15.6 °C 15.1 °C 995.5 hPa SE 9.7 km/h 16.1 km/h 97 % 0 mm
07:16 15.6 °C 15.1 °C 995.5 hPa SSE 2.9 km/h 11.1 km/h 97 % 0 mm
07:21 15.6 °C 14.9 °C 995.5 hPa South 3.9 km/h 8 km/h 96 % 0 mm
07:26 15.6 °C 14.9 °C 995.5 hPa South 3.5 km/h 16.7 km/h 96 % 0 mm
07:31 15.5 °C 14.9 °C 995.5 hPa SSW 6.9 km/h 9.7 km/h 96 % 0 mm
07:37 15.4 °C 14.8 °C 995.8 hPa SSE 5.3 km/h 18.5 km/h 96 % 0 mm
07:42 15.4 °C 14.8 °C 995.8 hPa SSW 3.5 km/h 5.6 km/h 96 % 0 mm
07:47 15.4 °C 14.8 °C 995.5 hPa SSW 2.1 km/h 7.4 km/h 96 % 0 mm
07:52 15.4 °C 14.8 °C 995.5 hPa South 5 km/h 18.5 km/h 96 % 0 mm
07:57 15.3 °C 14.6 °C 995.5 hPa SSW 4.7 km/h 7.4 km/h 95 % 0 mm
08:02 15.3 °C 14.6 °C 995.5 hPa ESE 6.1 km/h 11.1 km/h 95 % 0 mm
08:07 15.3 °C 14.5 °C 995.8 hPa SE 5.1 km/h 9.3 km/h 95 % 0 mm
08:12 15.3 °C 14.5 °C 995.5 hPa South 2.4 km/h 6.4 km/h 95 % 0 mm
08:17 15.3 °C 14.6 °C 995.5 hPa SSE 1.8 km/h 6.4 km/h 95 % 0 mm
08:22 15.3 °C 14.6 °C 995.5 hPa SSE 7.1 km/h 13 km/h 95 % 0 mm
08:27 15.3 °C 14.4 °C 995.5 hPa ESE 1 km/h 3.2 km/h 94 % 0 mm
08:32 15.3 °C 14.6 °C 995.5 hPa SE 2.4 km/h 11.3 km/h 95 % 0 mm
08:37 15.4 °C 14.4 °C 995.5 hPa SSE 1.3 km/h 5.6 km/h 94 % 0 mm
08:42 15.4 °C 14.4 °C 995.5 hPa East 7.4 km/h 18.5 km/h 94 % 0 mm
08:47 15.4 °C 14.3 °C 995.8 hPa SSE 2.7 km/h 6.4 km/h 93 % 0 mm
08:49 15.4 °C 14.3 °C 995.5 hPa SSE 0.3 km/h 7.4 km/h 93 % 0 mm
08:53 15.4 °C 14.1 °C 995.8 hPa SSE 7.2 km/h 13 km/h 92 % 0 mm
08:58 15.4 °C 14 °C 995.8 hPa SE 4.3 km/h 8 km/h 91 % 0 mm
09:04 15.5 °C 14.1 °C 995.8 hPa South 3.9 km/h 13 km/h 91 % 0 mm
09:09 15.6 °C 14.1 °C 996.2 hPa SSE 8.9 km/h 13 km/h 91 % 0 mm
09:14 15.6 °C 14.2 °C 995.8 hPa SE 4.5 km/h 8 km/h 91 % 0 mm
09:19 15.7 °C 14.1 °C 995.8 hPa SSE 6.9 km/h 19.3 km/h 90 % 0 mm
09:24 15.7 °C 14.1 °C 995.8 hPa SSE 6 km/h 11.1 km/h 90 % 0 mm
09:29 15.8 °C 13.9 °C 996.2 hPa SSE 5.3 km/h 13 km/h 89 % 0 mm
09:34 15.8 °C 13.7 °C 995.8 hPa SSE 5.6 km/h 16.7 km/h 87 % 0 mm
09:39 15.9 °C 13.7 °C 995.8 hPa SSE 7.7 km/h 13 km/h 87 % 0 mm
09:44 15.9 °C 13.6 °C 995.8 hPa South 3.7 km/h 8 km/h 86 % 0 mm
09:49 15.9 °C 13.2 °C 995.8 hPa SSE 6.4 km/h 14.8 km/h 84 % 0 mm
09:54 15.9 °C 13.4 °C 995.8 hPa SSE 5.5 km/h 9.3 km/h 85 % 0 mm
09:59 15.8 °C 12.9 °C 995.8 hPa SE 5.8 km/h 18.5 km/h 83 % 0 mm
10:04 15.9 °C 13.4 °C 996.2 hPa SE 6.3 km/h 11.1 km/h 85 % 0 mm
10:09 15.9 °C 13 °C 996.2 hPa SSW 5.8 km/h 8 km/h 83 % 0 mm
10:14 15.9 °C 12.9 °C 996.2 hPa South 4.2 km/h 7.4 km/h 82 % 0 mm
10:19 16 °C 12.7 °C 996.2 hPa SE 12.1 km/h 22.5 km/h 81 % 0 mm
10:24 16 °C 12.7 °C 996.2 hPa South 13.4 km/h 22.2 km/h 81 % 0 mm
10:29 16 °C 12.7 °C 996.2 hPa SE 10.9 km/h 27.4 km/h 81 % 0 mm
10:34 16 °C 12.7 °C 995.8 hPa South 4.2 km/h 7.4 km/h 81 % 0 mm
10:39 16.1 °C 12.8 °C 995.8 hPa SE 3.1 km/h 13 km/h 81 % 0 mm
10:44 16.3 °C 13.1 °C 995.8 hPa SSW 8.9 km/h 14.8 km/h 81 % 0 mm
10:49 16.5 °C 13.1 °C 996.2 hPa South 6.1 km/h 12.9 km/h 80 % 0 mm
10:54 16.5 °C 12.7 °C 995.8 hPa WSW 7.4 km/h 9.7 km/h 78 % 0 mm
10:59 16.6 °C 12.8 °C 996.2 hPa SSW 5.6 km/h 20.4 km/h 78 % 0 mm
11:04 16.9 °C 13 °C 996.2 hPa South 5.6 km/h 11.1 km/h 78 % 0 mm
11:09 17.2 °C 12.7 °C 995.8 hPa SE 16.6 km/h 25.9 km/h 75 % 0 mm
11:14 17.7 °C 14 °C 995.8 hPa SSW 9.8 km/h 12.9 km/h 79 % 0 mm
11:19 18.2 °C 14.1 °C 995.8 hPa SE 6.6 km/h 13 km/h 77 % 0 mm
11:24 18.6 °C 14.3 °C 995.8 hPa South 6.1 km/h 11.1 km/h 76 % 0 mm
11:29 18.9 °C 14.2 °C 996.2 hPa SSE 9.2 km/h 16.1 km/h 74 % 0 mm
11:34 19.1 °C 13.5 °C 995.8 hPa SSE 11.6 km/h 32.2 km/h 70 % 0 mm
11:39 19.1 °C 13.2 °C 995.8 hPa SSW 9.2 km/h 24.1 km/h 69 % 0 mm
11:44 19.2 °C 13.6 °C 995.8 hPa South 8.5 km/h 16.7 km/h 70 % 0 mm
11:50 19.2 °C 13.4 °C 995.8 hPa South 7.2 km/h 24.1 km/h 69 % 0 mm
11:55 19.3 °C 13 °C 995.8 hPa South 5.5 km/h 18.5 km/h 67 % 0 mm
12:00 19.3 °C 13 °C 995.8 hPa South 12.4 km/h 18.5 km/h 67 % 0 mm
12:05 19.4 °C 13.2 °C 995.5 hPa South 7.1 km/h 18.5 km/h 67 % 0 mm
12:10 19.6 °C 13.6 °C 995.5 hPa SSW 7.6 km/h 16.7 km/h 68 % 0 mm
12:15 19.7 °C 12.9 °C 995.5 hPa SSW 10.5 km/h 25.9 km/h 65 % 0 mm
12:20 19.8 °C 13.3 °C 995.5 hPa SSE 5.6 km/h 11.1 km/h 66 % 0 mm
12:25 20.1 °C 13.3 °C 995.5 hPa South 7.4 km/h 25.9 km/h 65 % 0 mm
12:30 19.9 °C 12.6 °C 995.5 hPa SSW 9.3 km/h 20.4 km/h 63 % 0 mm
12:35 19.9 °C 12.7 °C 995.5 hPa South 10.1 km/h 14.8 km/h 63 % 0 mm
12:40 19.8 °C 12.8 °C 995.1 hPa SW 6.3 km/h 14.5 km/h 64 % 0 mm
12:45 19.9 °C 13.2 °C 995.5 hPa SSE 11.6 km/h 20.9 km/h 65 % 0 mm
12:50 20.1 °C 13.3 °C 995.1 hPa SSW 3.2 km/h 16.7 km/h 65 % 0 mm
12:55 20.2 °C 13.2 °C 995.5 hPa SSW 6.9 km/h 18.5 km/h 64 % 0 mm
13:00 20.2 °C 13.2 °C 995.5 hPa SSE 6.9 km/h 19.3 km/h 64 % 0 mm
13:05 19.9 °C 13.3 °C 995.5 hPa South 6.4 km/h 16.7 km/h 66 % 0 mm
13:10 19.9 °C 13.3 °C 995.5 hPa South 6.9 km/h 14.5 km/h 66 % 0 mm
13:15 20 °C 13 °C 995.5 hPa South 9 km/h 18.5 km/h 64 % 0 mm
13:20 19.7 °C 12.9 °C 995.8 hPa SSW 10.3 km/h 17.7 km/h 65 % 0 mm
13:25 19.4 °C 12.7 °C 995.5 hPa South 10.1 km/h 24.1 km/h 65 % 0 mm
13:30 19.6 °C 13.3 °C 995.5 hPa South 6.4 km/h 9.7 km/h 67 % 0 mm
13:35 19.6 °C 13.1 °C 995.5 hPa SSE 9.2 km/h 20.9 km/h 66 % 0 mm
13:40 19.5 °C 13 °C 995.5 hPa SE 7.2 km/h 13 km/h 66 % 0 mm
13:45 19.2 °C 12.9 °C 995.5 hPa East 6.4 km/h 11.1 km/h 67 % 0 mm
13:50 19.3 °C 13 °C 995.5 hPa SSW 10.1 km/h 16.7 km/h 67 % 0 mm
13:55 19.3 °C 13.2 °C 995.8 hPa SSW 9 km/h 18.5 km/h 68 % 0 mm
14:00 19.4 °C 13.3 °C 995.8 hPa SE 6.9 km/h 24.1 km/h 68 % 0 mm
14:05 19.3 °C 13 °C 995.8 hPa South 12.7 km/h 18.5 km/h 67 % 0 mm
14:10 19.1 °C 12.8 °C 995.5 hPa SSE 11.4 km/h 25.9 km/h 67 % 0 mm
14:15 18.7 °C 12.7 °C 995.8 hPa SE 8 km/h 27.8 km/h 68 % 0 mm
14:20 18.4 °C 12.9 °C 995.8 hPa South 6 km/h 13 km/h 70 % 0 mm
14:26 18.4 °C 13.3 °C 995.8 hPa South 8 km/h 16.1 km/h 72 % 0 mm
14:31 18.6 °C 13.2 °C 995.8 hPa South 6 km/h 18.5 km/h 71 % 0 mm
14:36 18.7 °C 13.4 °C 995.8 hPa South 4.8 km/h 16.1 km/h 71 % 0 mm
14:41 18.6 °C 13 °C 995.5 hPa South 8 km/h 29 km/h 70 % 0 mm
14:46 18.3 °C 12.8 °C 995.5 hPa South 8 km/h 19.3 km/h 70 % 0 mm
14:51 18.4 °C 12.9 °C 995.5 hPa South 9.7 km/h 22.5 km/h 70 % 0 mm
14:56 18.4 °C 12.9 °C 995.1 hPa SSE 4.8 km/h 22.5 km/h 70 % 0 mm
14:57 18.6 °C 13 °C 995.1 hPa SSE 11.4 km/h 20.9 km/h 70 % 0 mm
15:02 18.5 °C 12.7 °C 995.1 hPa South 11.3 km/h 29.6 km/h 69 % 0 mm
15:07 18.5 °C 12.9 °C 994.8 hPa SSW 10.3 km/h 14.8 km/h 70 % 0 mm
15:12 18.2 °C 12.7 °C 994.8 hPa South 7.1 km/h 22.5 km/h 70 % 0 mm
15:17 18 °C 12.7 °C 994.8 hPa SSE 6 km/h 8 km/h 71 % 0 mm
15:22 18 °C 12.7 °C 994.8 hPa South 4.5 km/h 22.2 km/h 71 % 0 mm
15:27 18.1 °C 13 °C 994.8 hPa South 3.7 km/h 11.1 km/h 72 % 0 mm
15:32 18.4 °C 13.2 °C 994.8 hPa SSE 5.8 km/h 13 km/h 72 % 0 mm
15:37 18.7 °C 12.9 °C 994.8 hPa West 5.6 km/h 7.4 km/h 69 % 0 mm
15:42 18.8 °C 12.8 °C 994.8 hPa South 5.5 km/h 14.8 km/h 68 % 0 mm
15:47 18.9 °C 13.1 °C 995.1 hPa South 3.9 km/h 11.1 km/h 69 % 0 mm
15:52 18.9 °C 12.7 °C 994.8 hPa SE 12.1 km/h 29.6 km/h 67 % 0 mm
15:57 18.9 °C 12.9 °C 994.8 hPa SSW 5.1 km/h 11.3 km/h 68 % 0 mm
16:03 19.1 °C 13.2 °C 994.1 hPa SSW 4.8 km/h 14.8 km/h 69 % 0 mm
16:08 19.3 °C 13.4 °C 994.1 hPa SSW 5.3 km/h 9.3 km/h 69 % 0 mm
16:13 19.4 °C 13.4 °C 994.8 hPa SSE 8.4 km/h 14.8 km/h 68 % 0 mm
16:18 19.1 °C 13.1 °C 995.1 hPa SE 11.1 km/h 24.1 km/h 68 % 0 mm
16:23 18.8 °C 13 °C 995.1 hPa South 7.1 km/h 13 km/h 69 % 0 mm
16:28 18.7 °C 13.1 °C 995.1 hPa SSE 6.3 km/h 20.4 km/h 70 % 0 mm
16:33 18.6 °C 13 °C 995.1 hPa SSE 13.2 km/h 22.2 km/h 70 % 0 mm
16:38 18.2 °C 12.8 °C 995.1 hPa SSE 6.6 km/h 20.4 km/h 71 % 0 mm
16:43 17.7 °C 12.6 °C 995.5 hPa South 5.8 km/h 11.1 km/h 72 % 0 mm
16:48 17.5 °C 12.6 °C 995.5 hPa SSE 7.4 km/h 18.5 km/h 73 % 0 mm
16:53 17.1 °C 12.4 °C 995.5 hPa SW 6.1 km/h 13 km/h 74 % 0 mm
16:58 16.8 °C 12.3 °C 995.5 hPa South 6.6 km/h 16.7 km/h 75 % 0 mm
17:03 16.7 °C 12.4 °C 995.5 hPa South 5.3 km/h 11.1 km/h 76 % 0 mm
17:08 16.7 °C 12.4 °C 995.5 hPa South 4.5 km/h 11.1 km/h 76 % 0 mm
17:13 16.7 °C 12.8 °C 994.8 hPa WSW 1.8 km/h 5.6 km/h 78 % 0 mm
17:18 16.8 °C 12.7 °C 994.8 hPa SSE 4 km/h 7.4 km/h 77 % 0 mm
17:23 16.8 °C 12.8 °C 994.8 hPa WSW 6.6 km/h 9.3 km/h 77 % 0 mm
17:28 16.8 °C 12.7 °C 994.8 hPa SE 8.9 km/h 18.5 km/h 77 % 0 mm
17:29 16.7 °C 12.4 °C 994.8 hPa SE 4.8 km/h 18.5 km/h 76 % 0 mm
17:34 16.7 °C 12.6 °C 994.5 hPa SE 3.2 km/h 7.4 km/h 77 % 0 mm
17:39 16.7 °C 12.6 °C 994.1 hPa SSW 4.2 km/h 9.3 km/h 77 % 0 mm
17:44 16.7 °C 12.6 °C 994.1 hPa South 2.9 km/h 5.6 km/h 77 % 0 mm
17:49 16.6 °C 12.5 °C 994.1 hPa SSW 1.8 km/h 5.6 km/h 77 % 0 mm
17:54 16.6 °C 12.8 °C 994.5 hPa SSW 4 km/h 11.1 km/h 78 % 0 mm
17:59 16.6 °C 12.5 °C 994.8 hPa South 10.1 km/h 18.5 km/h 77 % 0 mm
18:04 16.3 °C 12.3 °C 994.8 hPa South 9.5 km/h 18.5 km/h 77 % 0 mm
18:09 16.1 °C 12.3 °C 994.8 hPa SSE 12.4 km/h 16.7 km/h 78 % 0 mm
18:14 15.9 °C 12.3 °C 994.8 hPa South 6.4 km/h 9.3 km/h 79 % 0 mm
18:19 15.9 °C 12.4 °C 994.5 hPa SSE 10.9 km/h 12.9 km/h 80 % 0 mm
18:24 15.7 °C 12.2 °C 994.5 hPa SE 7.1 km/h 20.4 km/h 80 % 0 mm
18:29 15.5 °C 12.1 °C 994.1 hPa South 6 km/h 11.1 km/h 80 % 0 mm
18:35 15.4 °C 12.2 °C 994.1 hPa ESE 2.7 km/h 11.1 km/h 81 % 0 mm
18:40 15.3 °C 12.1 °C 994.1 hPa SSE 9.7 km/h 20.4 km/h 81 % 0 mm
18:45 15.2 °C 12.2 °C 994.1 hPa SE 4.3 km/h 14.8 km/h 82 % 0 mm
18:50 15.1 °C 12.1 °C 994.1 hPa SSE 5 km/h 9.3 km/h 82 % 0 mm
18:55 15.1 °C 12 °C 994.1 hPa SSE 10.8 km/h 18.5 km/h 82 % 0 mm
19:00 14.9 °C 12.1 °C 994.1 hPa SSW 1.3 km/h 18.5 km/h 83 % 0 mm
19:05 14.8 °C 11.9 °C 994.1 hPa SSW 0.5 km/h 3.7 km/h 83 % 0 mm
19:10 14.7 °C 11.9 °C 994.1 hPa SSE 4.7 km/h 7.4 km/h 83 % 0 mm
19:15 14.6 °C 11.9 °C 994.1 hPa South 7.6 km/h 11.1 km/h 84 % 0 mm
19:20 14.6 °C 11.9 °C 994.5 hPa SSE 3.9 km/h 11.3 km/h 84 % 0 mm
19:25 14.5 °C 12 °C 994.5 hPa SE 3.1 km/h 9.3 km/h 85 % 0 mm
19:30 14.4 °C 11.9 °C 994.5 hPa South 9.7 km/h 16.7 km/h 85 % 0 mm
19:35 14.3 °C 11.8 °C 994.5 hPa SSW 6.4 km/h 11.3 km/h 85 % 0 mm
19:40 14.2 °C 11.8 °C 994.5 hPa South 7.6 km/h 16.7 km/h 86 % 0 mm
19:46 14.1 °C 11.8 °C 994.5 hPa SSE 3.2 km/h 14.5 km/h 86 % 0 mm
19:51 14.1 °C 11.7 °C 994.8 hPa South 9.7 km/h 22.5 km/h 86 % 0 mm
19:52 14.1 °C 11.7 °C 994.5 hPa South 7.6 km/h 13 km/h 86 % 0 mm
19:58 14 °C 11.7 °C 994.5 hPa SSW 7.4 km/h 11.1 km/h 86 % 0 mm
20:03 13.9 °C 11.8 °C 994.8 hPa ESE 6.3 km/h 11.1 km/h 87 % 0 mm
20:08 13.8 °C 11.7 °C 994.5 hPa SSE 6 km/h 9.3 km/h 87 % 0 mm
20:13 13.8 °C 11.7 °C 995.1 hPa SE 10.1 km/h 18.5 km/h 87 % 0 mm
20:18 13.8 °C 11.8 °C 995.1 hPa SSE 4.3 km/h 9.3 km/h 88 % 0 mm
20:23 13.7 °C 11.8 °C 995.1 hPa South 10.3 km/h 20.4 km/h 88 % 0 mm
20:28 13.7 °C 11.7 °C 994.8 hPa South 6 km/h 13 km/h 88 % 0 mm
20:33 13.7 °C 11.7 °C 994.8 hPa SSE 16.4 km/h 25.9 km/h 88 % 0 mm
20:38 13.6 °C 11.7 °C 995.1 hPa SSE 10.3 km/h 20.4 km/h 88 % 0 mm
20:43 13.6 °C 11.8 °C 995.1 hPa SE 4 km/h 5.6 km/h 89 % 0 mm
20:49 13.6 °C 11.8 °C 995.1 hPa SSW 3.7 km/h 16.7 km/h 89 % 0 mm
20:54 13.6 °C 11.8 °C 995.1 hPa SSE 4 km/h 5.6 km/h 89 % 0 mm
20:59 13.6 °C 11.8 °C 995.1 hPa South 3.5 km/h 13 km/h 89 % 0 mm
21:04 13.6 °C 11.8 °C 995.5 hPa South 5.6 km/h 13 km/h 89 % 0 mm
21:09 13.6 °C 11.9 °C 995.5 hPa South 1.3 km/h 3.7 km/h 90 % 0 mm
21:14 13.6 °C 11.9 °C 995.8 hPa SW 1.3 km/h 3.7 km/h 90 % 0 mm
21:19 13.6 °C 12 °C 995.8 hPa SSW 1.6 km/h 11.1 km/h 90 % 0 mm
21:24 13.6 °C 12 °C 995.8 hPa SW 1 km/h 11.1 km/h 90 % 0 mm
21:29 13.6 °C 12 °C 995.8 hPa SSW 3.2 km/h 9.3 km/h 90 % 0 mm
21:34 13.6 °C 12 °C 995.8 hPa SSW 4.8 km/h 7.4 km/h 90 % 0 mm
21:39 13.6 °C 12.2 °C 995.8 hPa SSW 2.3 km/h 5.6 km/h 91 % 0 mm
21:44 13.6 °C 12.2 °C 995.8 hPa SSW 1.3 km/h 7.4 km/h 91 % 0 mm
21:49 13.6 °C 12.2 °C 996.2 hPa SSW 1.6 km/h 4.8 km/h 91 % 0 mm
21:54 13.6 °C 12.2 °C 996.2 hPa SSW 4.2 km/h 5.6 km/h 91 % 0 mm
21:59 13.6 °C 12.2 °C 996.2 hPa SSW 1.9 km/h 5.6 km/h 91 % 0 mm
22:04 13.6 °C 12.1 °C 996.2 hPa SSW 1.1 km/h 1.9 km/h 91 % 0 mm
22:09 13.6 °C 12.1 °C 996.2 hPa SSW 2.1 km/h 4.8 km/h 91 % 0 mm
22:14 13.6 °C 12.1 °C 996.2 hPa SW 1.1 km/h 3.2 km/h 91 % 0 mm
22:15 13.6 °C 12.1 °C 996.2 hPa SW 1.4 km/h 3.7 km/h 91 % 0 mm
22:20 13.6 °C 12.1 °C 996.2 hPa SSW 1.6 km/h 5.6 km/h 91 % 0 mm
22:25 13.5 °C 12.1 °C 996.2 hPa SW 0.8 km/h 5.6 km/h 91 % 0 mm
22:30 13.5 °C 12.1 °C 996.2 hPa WSW 1.6 km/h 3.7 km/h 91 % 0 mm
22:35 13.4 °C 12 °C 996.5 hPa WSW 2.6 km/h 6.4 km/h 91 % 0 mm
22:40 13.4 °C 12 °C 996.5 hPa SW 0.5 km/h 5.6 km/h 91 % 0 mm
22:45 13.4 °C 12 °C 996.5 hPa SW 0.8 km/h 5.6 km/h 91 % 0 mm
22:50 13.4 °C 12 °C 996.5 hPa WSW 1.4 km/h 5.6 km/h 91 % 0 mm
22:55 13.4 °C 12.2 °C 996.5 hPa SW 1.1 km/h 3.7 km/h 92 % 0 mm
23:01 13.4 °C 12.2 °C 996.5 hPa WSW 3.7 km/h 11.3 km/h 92 % 0 mm
23:06 13.4 °C 11.9 °C 996.5 hPa SW 2.7 km/h 9.3 km/h 91 % 0 mm
23:11 13.4 °C 11.9 °C 996.5 hPa SW 5.6 km/h 9.7 km/h 91 % 0 mm
23:16 13.3 °C 11.9 °C 996.5 hPa WSW 4 km/h 9.3 km/h 91 % 0 mm
23:21 13.3 °C 11.7 °C 996.5 hPa SW 1.1 km/h 3.7 km/h 90 % 0 mm
23:26 13.3 °C 11.5 °C 996.5 hPa WSW 0.3 km/h 1.9 km/h 89 % 0 mm
23:31 13.2 °C 11.4 °C 996.8 hPa WSW 0.8 km/h 4.8 km/h 89 % 0 mm
23:36 13.2 °C 11.2 °C 996.8 hPa WSW 1.9 km/h 5.6 km/h 88 % 0 mm
23:41 13.2 °C 11.2 °C 996.8 hPa SW 2.4 km/h 3.2 km/h 88 % 0 mm
23:46 13.1 °C 11 °C 996.8 hPa SW 3.5 km/h 7.4 km/h 87 % 0 mm
23:51 13.1 °C 10.8 °C 996.8 hPa SW 0.3 km/h 5.6 km/h 86 % 0 mm
23:56 13.1 °C 10.6 °C 996.8 hPa SSW 2.1 km/h 9.7 km/h 85 % 0 mm
Crab Meadow Weather
Compliments of Weather Underground - 3 mb

Script developed by  Jim McMurry - jmcmurry@mwt.net Adapted for the template by  Wim van der Kuil - Leuven-Template.eu

Weather Terms: Enhanced Fujita Scale or EF-Scale - A scale of wind damage intensity in which wind speeds are inferred from analysis of wind damage. All tornadoes and most other windstorms are assigned a numerical rating from this scale according to the most intense damage caused by the storm. EF0 (weak) 6585 mph, light damage EF1 (weak) 86110 mph, moderate damage EF2 (strong) 111135 mph, considerable damage EF3 (strong) 136165 mph, severe damage EF4 (violent) 166200 mph, devastating damage EF5 (violent) >200 mph, incredible damage.